sensor_id;sensor_type;location;lat;lon;timestamp;pressure;altitude;pressure_sealevel;temperature;humidity
41703;BME280;861;48.808;9.006;2022-12-28T00:01:33;97873.22;;;3.94;84.49
41703;BME280;861;48.808;9.006;2022-12-28T00:04:03;97877.34;;;3.83;84.12
41703;BME280;861;48.808;9.006;2022-12-28T00:06:32;97868.91;;;4.01;83.45
41703;BME280;861;48.808;9.006;2022-12-28T00:09:00;97870.06;;;4.21;82.24
41703;BME280;861;48.808;9.006;2022-12-28T00:11:28;97867.16;;;3.97;83.18
41703;BME280;861;48.808;9.006;2022-12-28T00:13:57;97857.66;;;3.99;82.63
41703;BME280;861;48.808;9.006;2022-12-28T00:16:40;97854.84;;;3.87;82.90
41703;BME280;861;48.808;9.006;2022-12-28T00:19:16;97859.66;;;4.11;82.43
41703;BME280;861;48.808;9.006;2022-12-28T00:21:44;97851.59;;;4.11;82.21
41703;BME280;861;48.808;9.006;2022-12-28T00:24:25;97851.19;;;4.29;81.32
41703;BME280;861;48.808;9.006;2022-12-28T00:26:52;97848.91;;;4.40;81.03
41703;BME280;861;48.808;9.006;2022-12-28T00:29:18;97841.97;;;4.30;80.48
41703;BME280;861;48.808;9.006;2022-12-28T00:31:45;97847.56;;;4.25;80.83
41703;BME280;861;48.808;9.006;2022-12-28T00:34:11;97841.16;;;4.01;82.57
41703;BME280;861;48.808;9.006;2022-12-28T00:36:37;97839.84;;;4.07;82.35
41703;BME280;861;48.808;9.006;2022-12-28T00:39:04;97837.94;;;4.45;81.15
41703;BME280;861;48.808;9.006;2022-12-28T00:41:30;97839.53;;;4.66;79.82
41703;BME280;861;48.808;9.006;2022-12-28T00:43:56;97839.25;;;4.39;80.81
41703;BME280;861;48.808;9.006;2022-12-28T00:46:23;97838.72;;;4.16;81.59
41703;BME280;861;48.808;9.006;2022-12-28T00:48:49;97826.44;;;4.27;80.95
41703;BME280;861;48.808;9.006;2022-12-28T00:51:18;97813.44;;;4.29;81.40
41703;BME280;861;48.808;9.006;2022-12-28T00:53:45;97814.00;;;4.14;81.87
41703;BME280;861;48.808;9.006;2022-12-28T00:56:17;97813.69;;;4.16;81.82
41703;BME280;861;48.808;9.006;2022-12-28T00:58:46;97805.16;;;4.05;82.48
41703;BME280;861;48.808;9.006;2022-12-28T01:01:22;97807.84;;;4.05;82.36
41703;BME280;861;48.808;9.006;2022-12-28T01:03:49;97798.06;;;4.30;81.91
41703;BME280;861;48.808;9.006;2022-12-28T01:06:19;97787.69;;;4.11;82.28
41703;BME280;861;48.808;9.006;2022-12-28T01:08:45;97791.16;;;4.20;82.79
41703;BME280;861;48.808;9.006;2022-12-28T01:11:22;97781.81;;;4.38;81.78
41703;BME280;861;48.808;9.006;2022-12-28T01:14:00;97786.44;;;4.09;83.04
41703;BME280;861;48.808;9.006;2022-12-28T01:16:35;97790.75;;;4.59;81.15
41703;BME280;861;48.808;9.006;2022-12-28T01:19:06;97789.66;;;4.31;80.93
41703;BME280;861;48.808;9.006;2022-12-28T01:21:35;97788.56;;;4.24;81.98
41703;BME280;861;48.808;9.006;2022-12-28T01:24:05;97786.00;;;4.56;80.02
41703;BME280;861;48.808;9.006;2022-12-28T01:26:33;97775.69;;;4.58;79.35
41703;BME280;861;48.808;9.006;2022-12-28T01:29:00;97775.72;;;4.50;79.52
41703;BME280;861;48.808;9.006;2022-12-28T01:31:26;97773.09;;;4.41;80.55
41703;BME280;861;48.808;9.006;2022-12-28T01:33:54;97778.75;;;4.48;80.56
41703;BME280;861;48.808;9.006;2022-12-28T01:36:28;97781.94;;;4.21;81.67
41703;BME280;861;48.808;9.006;2022-12-28T01:39:00;97781.38;;;4.57;79.79
41703;BME280;861;48.808;9.006;2022-12-28T01:41:30;97768.19;;;4.35;80.67
41703;BME280;861;48.808;9.006;2022-12-28T01:46:56;97763.75;;;4.39;80.83
41703;BME280;861;48.808;9.006;2022-12-28T01:49:51;97759.91;;;4.19;81.25
41703;BME280;861;48.808;9.006;2022-12-28T01:52:45;97744.06;;;4.18;80.87
41703;BME280;861;48.808;9.006;2022-12-28T01:55:31;97748.22;;;4.15;82.22
41703;BME280;861;48.808;9.006;2022-12-28T01:58:19;97739.47;;;4.18;81.50
41703;BME280;861;48.808;9.006;2022-12-28T02:00:50;97749.94;;;4.40;80.99
41703;BME280;861;48.808;9.006;2022-12-28T02:03:26;97738.22;;;4.57;79.97
41703;BME280;861;48.808;9.006;2022-12-28T02:06:03;97730.09;;;4.45;80.12
41703;BME280;861;48.808;9.006;2022-12-28T02:09:20;97722.31;;;4.64;79.81
41703;BME280;861;48.808;9.006;2022-12-28T02:11:54;97727.44;;;4.78;79.00
41703;BME280;861;48.808;9.006;2022-12-28T02:14:21;97723.28;;;5.01;78.18
41703;BME280;861;48.808;9.006;2022-12-28T02:16:48;97722.88;;;4.90;78.90
41703;BME280;861;48.808;9.006;2022-12-28T02:19:37;97717.47;;;4.90;78.38
41703;BME280;861;48.808;9.006;2022-12-28T02:22:18;97716.66;;;4.78;79.14
41703;BME280;861;48.808;9.006;2022-12-28T02:25:56;97703.56;;;4.88;78.46
41703;BME280;861;48.808;9.006;2022-12-28T02:29:25;97696.84;;;4.73;78.71
41703;BME280;861;48.808;9.006;2022-12-28T02:32:36;97689.94;;;4.85;78.16
41703;BME280;861;48.808;9.006;2022-12-28T02:41:23;97685.81;;;4.66;79.69
41703;BME280;861;48.808;9.006;2022-12-28T02:43:53;97690.63;;;4.61;79.94
41703;BME280;861;48.808;9.006;2022-12-28T02:46:31;97683.78;;;4.63;79.82
41703;BME280;861;48.808;9.006;2022-12-28T02:49:27;97675.16;;;4.70;79.91
41703;BME280;861;48.808;9.006;2022-12-28T03:02:20;97640.03;;;4.91;79.04
41703;BME280;861;48.808;9.006;2022-12-28T03:05:54;97632.94;;;4.86;78.52
41703;BME280;861;48.808;9.006;2022-12-28T03:11:37;97630.78;;;4.80;79.76
41703;BME280;861;48.808;9.006;2022-12-28T03:14:25;97640.34;;;4.77;79.40
41703;BME280;861;48.808;9.006;2022-12-28T03:17:07;97640.34;;;4.77;80.09
41703;BME280;861;48.808;9.006;2022-12-28T03:20:03;97639.34;;;4.82;78.68
41703;BME280;861;48.808;9.006;2022-12-28T03:22:58;97641.94;;;4.90;78.60
41703;BME280;861;48.808;9.006;2022-12-28T03:25:47;97637.72;;;4.68;79.65
41703;BME280;861;48.808;9.006;2022-12-28T03:28:38;97629.72;;;5.05;79.38
41703;BME280;861;48.808;9.006;2022-12-28T03:31:29;97636.22;;;4.92;79.02
41703;BME280;861;48.808;9.006;2022-12-28T03:34:01;97623.84;;;4.91;79.71
41703;BME280;861;48.808;9.006;2022-12-28T03:37:10;97623.38;;;4.77;79.45
41703;BME280;861;48.808;9.006;2022-12-28T03:40:08;97618.28;;;5.32;77.31
41703;BME280;861;48.808;9.006;2022-12-28T03:42:54;97624.66;;;4.91;78.77
41703;BME280;861;48.808;9.006;2022-12-28T03:46:47;97619.13;;;4.88;78.93
41703;BME280;861;48.808;9.006;2022-12-28T03:49:15;97615.22;;;4.97;78.66
41703;BME280;861;48.808;9.006;2022-12-28T03:51:44;97614.41;;;4.85;78.88
41703;BME280;861;48.808;9.006;2022-12-28T03:54:17;97615.63;;;4.87;79.18
41703;BME280;861;48.808;9.006;2022-12-28T03:56:50;97605.88;;;5.07;78.75
41703;BME280;861;48.808;9.006;2022-12-28T03:59:18;97610.50;;;5.06;78.68
41703;BME280;861;48.808;9.006;2022-12-28T04:01:44;97604.22;;;5.26;78.02
41703;BME280;861;48.808;9.006;2022-12-28T04:04:11;97599.28;;;5.40;76.82
41703;BME280;861;48.808;9.006;2022-12-28T04:06:38;97607.09;;;4.97;78.60
41703;BME280;861;48.808;9.006;2022-12-28T04:09:05;97603.75;;;5.00;79.15
41703;BME280;861;48.808;9.006;2022-12-28T04:11:32;97603.53;;;5.17;78.65
41703;BME280;861;48.808;9.006;2022-12-28T04:13:58;97604.16;;;4.90;79.82
41703;BME280;861;48.808;9.006;2022-12-28T04:16:24;97600.06;;;5.17;78.40
41703;BME280;861;48.808;9.006;2022-12-28T04:18:51;97594.31;;;5.30;77.38
41703;BME280;861;48.808;9.006;2022-12-28T04:21:17;97592.19;;;5.12;78.36
41703;BME280;861;48.808;9.006;2022-12-28T04:23:43;97579.25;;;5.17;78.05
41703;BME280;861;48.808;9.006;2022-12-28T04:26:14;97577.22;;;5.14;78.69
41703;BME280;861;48.808;9.006;2022-12-28T04:28:43;97579.25;;;5.05;79.03
41703;BME280;861;48.808;9.006;2022-12-28T04:31:13;97573.75;;;5.14;79.08
41703;BME280;861;48.808;9.006;2022-12-28T04:33:39;97573.84;;;4.93;79.40
41703;BME280;861;48.808;9.006;2022-12-28T04:36:14;97565.88;;;5.09;78.59
41703;BME280;861;48.808;9.006;2022-12-28T04:38:42;97573.84;;;5.05;78.64
41703;BME280;861;48.808;9.006;2022-12-28T04:41:10;97573.50;;;5.07;79.26
41703;BME280;861;48.808;9.006;2022-12-28T04:43:37;97578.34;;;5.49;78.46
41703;BME280;861;48.808;9.006;2022-12-28T04:46:13;97568.13;;;5.31;77.45
41703;BME280;861;48.808;9.006;2022-12-28T04:48:41;97581.03;;;5.25;78.23
41703;BME280;861;48.808;9.006;2022-12-28T04:51:20;97580.25;;;5.49;77.24
41703;BME280;861;48.808;9.006;2022-12-28T04:53:53;97573.75;;;5.50;77.19
41703;BME280;861;48.808;9.006;2022-12-28T04:56:23;97564.94;;;5.41;78.10
41703;BME280;861;48.808;9.006;2022-12-28T04:58:58;97574.84;;;5.49;76.79
41703;BME280;861;48.808;9.006;2022-12-28T05:01:26;97560.25;;;5.50;77.03
41703;BME280;861;48.808;9.006;2022-12-28T05:03:54;97559.44;;;5.49;77.45
41703;BME280;861;48.808;9.006;2022-12-28T05:06:24;97556.41;;;5.51;77.87
41703;BME280;861;48.808;9.006;2022-12-28T05:08:51;97551.56;;;5.44;78.00
41703;BME280;861;48.808;9.006;2022-12-28T05:11:25;97555.13;;;5.72;77.25
41703;BME280;861;48.808;9.006;2022-12-28T05:13:53;97549.88;;;5.52;77.17
41703;BME280;861;48.808;9.006;2022-12-28T05:16:24;97545.03;;;5.45;77.68
41703;BME280;861;48.808;9.006;2022-12-28T05:18:54;97543.56;;;5.60;77.43
41703;BME280;861;48.808;9.006;2022-12-28T05:21:26;97537.25;;;5.44;78.13
41703;BME280;861;48.808;9.006;2022-12-28T05:23:54;97545.34;;;5.68;77.57
41703;BME280;861;48.808;9.006;2022-12-28T05:26:27;97543.25;;;5.49;78.67
41703;BME280;861;48.808;9.006;2022-12-28T05:28:56;97548.88;;;5.44;77.94
41703;BME280;861;48.808;9.006;2022-12-28T05:31:23;97540.84;;;5.72;76.97
41703;BME280;861;48.808;9.006;2022-12-28T05:33:50;97549.75;;;5.84;76.60
41703;BME280;861;48.808;9.006;2022-12-28T05:36:23;97547.84;;;5.49;77.40
41703;BME280;861;48.808;9.006;2022-12-28T05:38:53;97549.22;;;5.43;78.20
41703;BME280;861;48.808;9.006;2022-12-28T05:41:27;97548.38;;;5.66;77.74
41703;BME280;861;48.808;9.006;2022-12-28T05:43:57;97537.72;;;5.46;77.92
41703;BME280;861;48.808;9.006;2022-12-28T05:46:33;97545.78;;;5.58;77.48
41703;BME280;861;48.808;9.006;2022-12-28T05:49:01;97540.56;;;5.25;79.51
41703;BME280;861;48.808;9.006;2022-12-28T05:51:31;97539.88;;;5.16;79.65
41703;BME280;861;48.808;9.006;2022-12-28T05:54:00;97543.25;;;5.01;80.20
41703;BME280;861;48.808;9.006;2022-12-28T05:56:32;97538.88;;;5.21;80.04
41703;BME280;861;48.808;9.006;2022-12-28T05:59:05;97527.16;;;5.29;79.17
41703;BME280;861;48.808;9.006;2022-12-28T06:01:39;97523.34;;;5.30;78.92
41703;BME280;861;48.808;9.006;2022-12-28T06:04:16;97523.53;;;5.49;77.97
41703;BME280;861;48.808;9.006;2022-12-28T06:06:47;97525.00;;;5.46;78.87
41703;BME280;861;48.808;9.006;2022-12-28T06:09:14;97521.97;;;5.48;78.80
41703;BME280;861;48.808;9.006;2022-12-28T06:11:42;97512.28;;;5.47;79.16
41703;BME280;861;48.808;9.006;2022-12-28T06:14:08;97513.22;;;5.39;78.70
41703;BME280;861;48.808;9.006;2022-12-28T06:16:40;97510.78;;;5.61;77.97
41703;BME280;861;48.808;9.006;2022-12-28T06:19:11;97509.00;;;5.65;78.64
41703;BME280;861;48.808;9.006;2022-12-28T06:21:41;97506.66;;;5.52;78.09
41703;BME280;861;48.808;9.006;2022-12-28T06:24:09;97509.81;;;5.54;78.74
41703;BME280;861;48.808;9.006;2022-12-28T06:26:39;97512.00;;;5.76;77.56
41703;BME280;861;48.808;9.006;2022-12-28T06:29:06;97509.47;;;5.55;78.64
41703;BME280;861;48.808;9.006;2022-12-28T06:31:42;97509.31;;;5.76;77.00
41703;BME280;861;48.808;9.006;2022-12-28T06:34:11;97512.34;;;5.74;77.61
41703;BME280;861;48.808;9.006;2022-12-28T06:36:44;97505.28;;;5.70;77.48
41703;BME280;861;48.808;9.006;2022-12-28T06:39:13;97506.06;;;5.70;77.78
41703;BME280;861;48.808;9.006;2022-12-28T06:41:41;97499.63;;;5.75;77.75
41703;BME280;861;48.808;9.006;2022-12-28T06:44:12;97505.28;;;5.70;78.46
41703;BME280;861;48.808;9.006;2022-12-28T06:46:40;97497.28;;;5.61;78.74
41703;BME280;861;48.808;9.006;2022-12-28T06:49:06;97507.72;;;5.87;77.65
41703;BME280;861;48.808;9.006;2022-12-28T06:51:37;97494.31;;;5.78;77.48
41703;BME280;861;48.808;9.006;2022-12-28T06:54:06;97507.34;;;5.61;78.84
41703;BME280;861;48.808;9.006;2022-12-28T06:56:35;97496.88;;;5.59;78.95
41703;BME280;861;48.808;9.006;2022-12-28T06:59:03;97495.84;;;5.52;79.49
41703;BME280;861;48.808;9.006;2022-12-28T07:01:36;97493.59;;;5.54;79.27
41703;BME280;861;48.808;9.006;2022-12-28T07:04:08;97495.97;;;5.95;77.90
41703;BME280;861;48.808;9.006;2022-12-28T07:06:42;97494.97;;;5.48;79.18
41703;BME280;861;48.808;9.006;2022-12-28T07:09:14;97483.22;;;5.68;79.04
41703;BME280;861;48.808;9.006;2022-12-28T07:11:43;97488.34;;;5.85;78.70
41703;BME280;861;48.808;9.006;2022-12-28T07:14:10;97485.09;;;5.79;79.06
41703;BME280;861;48.808;9.006;2022-12-28T07:16:36;97473.66;;;5.70;78.64
41703;BME280;861;48.808;9.006;2022-12-28T07:19:03;97473.38;;;5.75;78.58
41703;BME280;861;48.808;9.006;2022-12-28T07:21:37;97477.69;;;5.64;80.08
41703;BME280;861;48.808;9.006;2022-12-28T07:24:06;97481.75;;;5.70;78.66
41703;BME280;861;48.808;9.006;2022-12-28T07:26:36;97474.66;;;5.66;79.12
41703;BME280;861;48.808;9.006;2022-12-28T07:29:07;97470.16;;;5.70;79.03
41703;BME280;861;48.808;9.006;2022-12-28T07:31:38;97464.19;;;5.64;79.23
41703;BME280;861;48.808;9.006;2022-12-28T07:34:05;97468.38;;;5.62;79.31
41703;BME280;861;48.808;9.006;2022-12-28T07:36:32;97468.88;;;5.79;79.18
41703;BME280;861;48.808;9.006;2022-12-28T07:38:59;97471.25;;;5.69;79.48
41703;BME280;861;48.808;9.006;2022-12-28T07:41:31;97472.63;;;5.75;79.11
41703;BME280;861;48.808;9.006;2022-12-28T07:44:00;97467.28;;;5.78;79.31
41703;BME280;861;48.808;9.006;2022-12-28T07:46:34;97473.66;;;5.98;78.40
41703;BME280;861;48.808;9.006;2022-12-28T07:49:03;97472.63;;;5.75;79.50
41703;BME280;861;48.808;9.006;2022-12-28T07:51:34;97472.16;;;5.73;79.58
41703;BME280;861;48.808;9.006;2022-12-28T07:54:04;97474.06;;;5.84;79.13
41703;BME280;861;48.808;9.006;2022-12-28T07:56:32;97468.84;;;5.91;78.94
41703;BME280;861;48.808;9.006;2022-12-28T07:59:03;97463.13;;;5.81;79.26
41703;BME280;861;48.808;9.006;2022-12-28T08:01:35;97461.81;;;5.75;79.71
41703;BME280;861;48.808;9.006;2022-12-28T08:04:12;97459.53;;;5.89;79.11
41703;BME280;861;48.808;9.006;2022-12-28T08:06:41;97462.50;;;5.99;79.48
41703;BME280;861;48.808;9.006;2022-12-28T08:09:13;97466.00;;;6.00;78.58
41703;BME280;861;48.808;9.006;2022-12-28T08:11:44;97459.44;;;5.85;79.39
41703;BME280;861;48.808;9.006;2022-12-28T08:14:12;97461.72;;;5.99;78.36
41703;BME280;861;48.808;9.006;2022-12-28T08:16:42;97459.38;;;5.97;79.16
41703;BME280;861;48.808;9.006;2022-12-28T08:19:10;97462.53;;;6.15;78.49
41703;BME280;861;48.808;9.006;2022-12-28T08:21:43;97461.72;;;6.27;78.25
41703;BME280;861;48.808;9.006;2022-12-28T08:24:18;97463.69;;;6.14;78.64
41703;BME280;861;48.808;9.006;2022-12-28T08:26:47;97447.91;;;6.16;77.89
41703;BME280;861;48.808;9.006;2022-12-28T08:29:19;97454.97;;;6.20;78.08
41703;BME280;861;48.808;9.006;2022-12-28T08:31:48;97457.56;;;6.60;76.13
41703;BME280;861;48.808;9.006;2022-12-28T08:34:19;97440.31;;;6.21;77.65
41703;BME280;861;48.808;9.006;2022-12-28T08:36:54;97444.78;;;6.45;77.37
41703;BME280;861;48.808;9.006;2022-12-28T08:39:20;97442.56;;;6.19;78.11
41703;BME280;861;48.808;9.006;2022-12-28T08:41:47;97434.31;;;6.59;76.08
41703;BME280;861;48.808;9.006;2022-12-28T08:44:13;97439.03;;;6.62;76.48
41703;BME280;861;48.808;9.006;2022-12-28T08:46:39;97441.56;;;6.55;76.51
41703;BME280;861;48.808;9.006;2022-12-28T08:49:06;97439.47;;;6.64;76.68
41703;BME280;861;48.808;9.006;2022-12-28T08:51:37;97441.28;;;6.91;75.44
41703;BME280;861;48.808;9.006;2022-12-28T08:54:09;97437.63;;;6.68;75.31
41703;BME280;861;48.808;9.006;2022-12-28T08:56:42;97440.97;;;6.62;76.18
41703;BME280;861;48.808;9.006;2022-12-28T08:59:16;97441.50;;;6.52;76.19
41703;BME280;861;48.808;9.006;2022-12-28T09:01:46;97434.94;;;6.84;76.51
41703;BME280;861;48.808;9.006;2022-12-28T09:04:20;97429.50;;;6.99;75.14
41703;BME280;861;48.808;9.006;2022-12-28T09:06:49;97419.72;;;6.79;75.79
41703;BME280;861;48.808;9.006;2022-12-28T09:09:18;97429.16;;;6.85;76.04
41703;BME280;861;48.808;9.006;2022-12-28T09:11:45;97422.66;;;7.05;75.77
41703;BME280;861;48.808;9.006;2022-12-28T09:14:14;97420.66;;;7.02;75.86
41703;BME280;861;48.808;9.006;2022-12-28T09:16:40;97424.00;;;6.96;75.41
41703;BME280;861;48.808;9.006;2022-12-28T09:19:13;97425.59;;;7.16;75.41
41703;BME280;861;48.808;9.006;2022-12-28T09:21:40;97420.63;;;7.18;75.37
41703;BME280;861;48.808;9.006;2022-12-28T09:24:07;97421.84;;;7.20;74.74
41703;BME280;861;48.808;9.006;2022-12-28T09:26:37;97430.56;;;7.29;74.34
41703;BME280;861;48.808;9.006;2022-12-28T09:29:07;97417.47;;;7.16;74.95
41703;BME280;861;48.808;9.006;2022-12-28T09:31:36;97419.78;;;6.98;75.48
41703;BME280;861;48.808;9.006;2022-12-28T09:34:11;97418.03;;;7.06;75.24
41703;BME280;861;48.808;9.006;2022-12-28T09:36:43;97416.09;;;7.06;75.14
41703;BME280;861;48.808;9.006;2022-12-28T09:39:17;97415.66;;;7.20;74.18
41703;BME280;861;48.808;9.006;2022-12-28T09:42:23;97407.50;;;7.01;76.41
41703;BME280;861;48.808;9.006;2022-12-28T09:45:04;97407.59;;;7.23;74.62
41703;BME280;861;48.808;9.006;2022-12-28T09:47:49;97406.41;;;7.40;73.94
41703;BME280;861;48.808;9.006;2022-12-28T09:50:29;97399.44;;;7.04;73.98
41703;BME280;861;48.808;9.006;2022-12-28T09:56:22;97395.47;;;7.17;74.37
41703;BME280;861;48.808;9.006;2022-12-28T09:58:53;97394.56;;;7.29;74.72
41703;BME280;861;48.808;9.006;2022-12-28T10:01:23;97404.84;;;7.39;73.59
41703;BME280;861;48.808;9.006;2022-12-28T10:03:54;97400.63;;;7.41;73.55
41703;BME280;861;48.808;9.006;2022-12-28T10:06:28;97389.44;;;7.43;73.86
41703;BME280;861;48.808;9.006;2022-12-28T10:09:23;97385.16;;;7.42;73.31
41703;BME280;861;48.808;9.006;2022-12-28T10:11:57;97388.25;;;7.59;73.29
41703;BME280;861;48.808;9.006;2022-12-28T10:14:34;97392.88;;;7.59;72.72
41703;BME280;861;48.808;9.006;2022-12-28T10:17:02;97385.66;;;7.66;73.13
41703;BME280;861;48.808;9.006;2022-12-28T10:19:31;97376.75;;;8.08;72.29
41703;BME280;861;48.808;9.006;2022-12-28T10:22:10;97379.50;;;7.89;73.16
41703;BME280;861;48.808;9.006;2022-12-28T10:24:40;97371.69;;;8.06;72.58
41703;BME280;861;48.808;9.006;2022-12-28T10:29:51;97372.44;;;8.48;71.11
41703;BME280;861;48.808;9.006;2022-12-28T10:32:18;97370.69;;;8.59;71.25
41703;BME280;861;48.808;9.006;2022-12-28T10:34:59;97355.81;;;8.76;71.32
41703;BME280;861;48.808;9.006;2022-12-28T10:37:33;97352.22;;;8.94;70.43
41703;BME280;861;48.808;9.006;2022-12-28T10:40:26;97353.19;;;8.83;70.13
41703;BME280;861;48.808;9.006;2022-12-28T10:42:57;97364.25;;;8.97;69.42
41703;BME280;861;48.808;9.006;2022-12-28T10:45:37;97342.53;;;8.97;69.80
41703;BME280;861;48.808;9.006;2022-12-28T10:48:20;97347.56;;;8.95;69.29
41703;BME280;861;48.808;9.006;2022-12-28T10:58:46;97337.88;;;8.68;70.93
41703;BME280;861;48.808;9.006;2022-12-28T11:04:15;97318.50;;;8.69;70.83
41703;BME280;861;48.808;9.006;2022-12-28T11:06:58;97321.41;;;8.83;70.11
41703;BME280;861;48.808;9.006;2022-12-28T11:09:31;97326.13;;;8.60;69.96
41703;BME280;861;48.808;9.006;2022-12-28T11:12:25;97312.38;;;8.50;70.47
41703;BME280;861;48.808;9.006;2022-12-28T11:14:53;97311.03;;;8.63;71.13
41703;BME280;861;48.808;9.006;2022-12-28T11:17:27;97318.69;;;8.57;70.86
41703;BME280;861;48.808;9.006;2022-12-28T11:22:45;97309.50;;;8.65;71.05
41703;BME280;861;48.808;9.006;2022-12-28T11:25:18;97315.09;;;8.76;70.19
41703;BME280;861;48.808;9.006;2022-12-28T11:27:54;97300.13;;;8.89;69.79
41703;BME280;861;48.808;9.006;2022-12-28T11:30:21;97295.25;;;9.01;69.31
41703;BME280;861;48.808;9.006;2022-12-28T11:33:01;97295.91;;;8.91;69.83
41703;BME280;861;48.808;9.006;2022-12-28T11:35:39;97297.09;;;8.94;69.14
41703;BME280;861;48.808;9.006;2022-12-28T11:38:37;97271.84;;;8.90;69.41
41703;BME280;861;48.808;9.006;2022-12-28T11:44:03;97270.38;;;8.96;69.29
41703;BME280;861;48.808;9.006;2022-12-28T11:49:00;97276.22;;;8.98;69.55
41703;BME280;861;48.808;9.006;2022-12-28T11:51:45;97266.34;;;9.16;69.53
41703;BME280;861;48.808;9.006;2022-12-28T11:54:58;97270.78;;;8.98;68.71
41703;BME280;861;48.808;9.006;2022-12-28T11:57:44;97270.00;;;8.97;69.34
41703;BME280;861;48.808;9.006;2022-12-28T12:10:44;97224.94;;;9.26;68.90
41703;BME280;861;48.808;9.006;2022-12-28T12:13:46;97234.75;;;9.04;69.29
41703;BME280;861;48.808;9.006;2022-12-28T12:16:47;97217.13;;;9.21;69.34
41703;BME280;861;48.808;9.006;2022-12-28T12:19:30;97221.25;;;9.45;67.88
41703;BME280;861;48.808;9.006;2022-12-28T12:22:18;97211.09;;;9.38;68.13
41703;BME280;861;48.808;9.006;2022-12-28T12:25:13;97214.84;;;9.26;69.60
41703;BME280;861;48.808;9.006;2022-12-28T12:28:25;97212.91;;;9.27;69.90
41703;BME280;861;48.808;9.006;2022-12-28T12:30:56;97199.22;;;9.53;68.30
41703;BME280;861;48.808;9.006;2022-12-28T12:33:34;97188.53;;;9.34;68.96
41703;BME280;861;48.808;9.006;2022-12-28T12:42:46;97191.19;;;9.67;68.05
41703;BME280;861;48.808;9.006;2022-12-28T12:46:41;97184.97;;;9.67;67.85
41703;BME280;861;48.808;9.006;2022-12-28T12:56:27;97192.63;;;9.54;67.77
41703;BME280;861;48.808;9.006;2022-12-28T13:00:10;97189.47;;;9.52;67.98
41703;BME280;861;48.808;9.006;2022-12-28T13:03:15;97181.56;;;9.37;69.80
41703;BME280;861;48.808;9.006;2022-12-28T13:05:57;97181.81;;;9.21;69.33
41703;BME280;861;48.808;9.006;2022-12-28T13:08:45;97179.88;;;9.25;69.64
41703;BME280;861;48.808;9.006;2022-12-28T13:11:18;97173.66;;;9.21;70.03
41703;BME280;861;48.808;9.006;2022-12-28T13:13:51;97170.47;;;9.15;70.45
41703;BME280;861;48.808;9.006;2022-12-28T13:16:30;97177.22;;;9.28;70.13
41703;BME280;861;48.808;9.006;2022-12-28T13:19:05;97178.50;;;9.42;69.28
41703;BME280;861;48.808;9.006;2022-12-28T13:21:46;97174.34;;;9.51;68.99
41703;BME280;861;48.808;9.006;2022-12-28T13:24:34;97163.66;;;9.32;69.44
41703;BME280;861;48.808;9.006;2022-12-28T13:27:02;97162.22;;;9.42;70.16
41703;BME280;861;48.808;9.006;2022-12-28T13:29:38;97155.19;;;9.37;69.67
41703;BME280;861;48.808;9.006;2022-12-28T13:32:22;97147.50;;;9.06;71.45
41703;BME280;861;48.808;9.006;2022-12-28T13:34:49;97143.69;;;9.10;71.11
41703;BME280;861;48.808;9.006;2022-12-28T13:37:19;97133.25;;;9.16;70.86
41703;BME280;861;48.808;9.006;2022-12-28T13:39:47;97119.06;;;9.37;70.31
41703;BME280;861;48.808;9.006;2022-12-28T13:42:27;97118.97;;;9.26;69.83
41703;BME280;861;48.808;9.006;2022-12-28T13:45:18;97118.91;;;9.19;70.55
41703;BME280;861;48.808;9.006;2022-12-28T13:47:52;97113.59;;;9.29;70.43
41703;BME280;861;48.808;9.006;2022-12-28T13:50:31;97108.94;;;9.33;70.78
41703;BME280;861;48.808;9.006;2022-12-28T13:53:14;97116.09;;;9.52;69.43
41703;BME280;861;48.808;9.006;2022-12-28T13:56:00;97128.13;;;9.51;70.15
41703;BME280;861;48.808;9.006;2022-12-28T13:58:39;97127.34;;;9.51;69.20
41703;BME280;861;48.808;9.006;2022-12-28T14:01:35;97122.13;;;9.28;69.63
41703;BME280;861;48.808;9.006;2022-12-28T14:04:15;97113.22;;;9.31;70.70
41703;BME280;861;48.808;9.006;2022-12-28T14:06:49;97123.72;;;9.36;69.98
41703;BME280;861;48.808;9.006;2022-12-28T14:09:19;97115.56;;;9.36;69.35
41703;BME280;861;48.808;9.006;2022-12-28T14:11:49;97110.84;;;9.26;70.62
41703;BME280;861;48.808;9.006;2022-12-28T14:14:17;97119.91;;;9.41;69.87
41703;BME280;861;48.808;9.006;2022-12-28T14:16:45;97117.47;;;9.32;70.32
41703;BME280;861;48.808;9.006;2022-12-28T14:19:12;97106.72;;;9.46;69.84
41703;BME280;861;48.808;9.006;2022-12-28T14:21:44;97099.72;;;9.42;69.62
41703;BME280;861;48.808;9.006;2022-12-28T14:24:15;97100.88;;;9.44;69.06
41703;BME280;861;48.808;9.006;2022-12-28T14:26:52;97107.66;;;9.20;70.31
41703;BME280;861;48.808;9.006;2022-12-28T14:29:33;97101.22;;;9.36;69.93
41703;BME280;861;48.808;9.006;2022-12-28T14:32:06;97094.13;;;9.24;69.91
41703;BME280;861;48.808;9.006;2022-12-28T14:34:39;97093.00;;;9.28;70.24
41703;BME280;861;48.808;9.006;2022-12-28T14:37:05;97079.97;;;9.48;69.54
41703;BME280;861;48.808;9.006;2022-12-28T14:39:44;97079.09;;;9.37;69.42
41703;BME280;861;48.808;9.006;2022-12-28T14:42:26;97086.25;;;9.12;70.52
41703;BME280;861;48.808;9.006;2022-12-28T14:44:54;97073.63;;;9.33;69.87
41703;BME280;861;48.808;9.006;2022-12-28T14:47:46;97072.09;;;9.36;69.74
41703;BME280;861;48.808;9.006;2022-12-28T14:50:29;97076.59;;;9.65;68.89
41703;BME280;861;48.808;9.006;2022-12-28T14:53:26;97070.78;;;9.67;68.89
41703;BME280;861;48.808;9.006;2022-12-28T14:56:07;97066.91;;;9.71;69.01
41703;BME280;861;48.808;9.006;2022-12-28T14:58:59;97068.41;;;9.62;68.58
41703;BME280;861;48.808;9.006;2022-12-28T15:01:44;97071.91;;;9.62;68.13
41703;BME280;861;48.808;9.006;2022-12-28T15:04:38;97075.78;;;9.61;68.26
41703;BME280;861;48.808;9.006;2022-12-28T15:07:09;97071.75;;;9.41;68.82
41703;BME280;861;48.808;9.006;2022-12-28T15:09:37;97066.53;;;9.22;69.27
41703;BME280;861;48.808;9.006;2022-12-28T15:12:14;97066.91;;;9.20;69.99
41703;BME280;861;48.808;9.006;2022-12-28T15:14:48;97067.59;;;9.07;69.56
41703;BME280;861;48.808;9.006;2022-12-28T15:17:15;97075.94;;;9.28;68.61
41703;BME280;861;48.808;9.006;2022-12-28T15:19:44;97051.97;;;9.44;67.92
41703;BME280;861;48.808;9.006;2022-12-28T15:22:12;97059.88;;;9.16;68.53
41703;BME280;861;48.808;9.006;2022-12-28T15:24:38;97060.66;;;9.13;68.77
41703;BME280;861;48.808;9.006;2022-12-28T15:27:06;97053.34;;;9.20;68.95
41703;BME280;861;48.808;9.006;2022-12-28T15:29:32;97053.44;;;9.34;68.60